Terminal Aerodrome Forecast
Issued by NWS

Home | Current Version | Previous Version | Text Only | Print | Product List | Glossary On
Versions: 1 2 3 4 5 6 7 8 9 10 11 12
000
FTUS45 KGJT 181139
TAFVEL
TAF
KVEL 181139Z 1812/1912 26004KT P6SM SKC
     FM181500 10004KT P6SM SKC
     FM182100 36006KT P6SM SKC
     FM190000 29007KT P6SM FEW130
     FM190900 20006KT P6SM FEW250=

USA.gov is the U.S. government's official web portal to all federal, state and local government web resources and services.